Time;durP1;ratioP1;P1;durP2;ratioP2;P2;SDS_P1;SDS_P2;PMS_P1;PMS_P2;Temp;Humidity;BMP_temperature;BMP_pressure;BME280_temperature;BME280_humidity;BME280_pressure;Samples;Min_cycle;Max_cycle;Signal;HPM_P1;HPM_P2
2023/04/19 00:02:47;;;;;;;18.25;8.68;;;;;;;15.84;68.83;98095.25;4471512;32;20065;-84
2023/04/19 00:05:15;;;;;;;16.50;8.38;;;;;;;15.62;70.21;98090.53;4471552;32;20098;-84
2023/04/19 00:07:42;;;;;;;21.40;8.90;;;;;;;16.44;67.35;98099.19;4471455;32;20057;-85
2023/04/19 00:10:09;;;;;;;20.92;9.90;;;;;;;16.28;67.89;98091.53;4470999;32;20054;-85
2023/04/19 00:12:36;;;;;;;18.62;9.05;;;;;;;16.14;68.54;98095.03;4470824;32;20107;-85
2023/04/19 00:15:03;;;;;;;17.40;8.88;;;;;;;15.87;70.02;98089.84;4471114;32;20098;-85
2023/04/19 00:17:30;;;;;;;18.83;8.93;;;;;;;16.14;68.47;98086.38;4471097;32;20112;-85
2023/04/19 00:19:57;;;;;;;22.80;9.05;;;;;;;16.57;67.29;98088.78;4470468;32;20080;-85
2023/04/19 00:22:25;;;;;;;20.37;9.93;;;;;;;16.41;67.82;98092.41;4470850;32;20061;-85
2023/04/19 00:24:52;;;;;;;21.95;10.85;;;;;;;16.37;67.34;98079.66;4471197;32;20058;-85
2023/04/19 00:27:19;;;;;;;21.73;10.30;;;;;;;16.30;67.82;98092.28;4470764;32;20062;-85
2023/04/19 00:29:51;;;;;;;20.23;9.85;;;;;;;16.65;66.57;98083.91;4470986;32;20069;-85
2023/04/19 00:32:18;;;;;;;18.75;9.18;;;;;;;16.96;64.40;98083.53;4471313;32;20057;-85
2023/04/19 00:34:45;;;;;;;20.85;10.43;;;;;;;17.27;63.03;98077.06;4470803;32;20053;-84
2023/04/19 00:37:11;;;;;;;21.05;9.63;;;;;;;16.96;64.64;98074.88;4470645;32;20065;-85
2023/04/19 00:39:58;;;;;;;19.98;10.02;;;;;;;16.66;66.26;98073.37;4470875;32;20065;-85
2023/04/19 00:42:25;;;;;;;22.48;9.90;;;;;;;16.30;67.02;98073.22;4470831;32;20103;-85
2023/04/19 00:44:52;;;;;;;23.33;10.25;;;;;;;16.04;68.02;98069.69;4470268;32;20079;-85
2023/04/19 00:47:19;;;;;;;19.40;9.93;;;;;;;16.19;67.77;98060.91;4470480;32;20061;-85
2023/04/19 00:49:47;;;;;;;20.58;10.10;;;;;;;16.79;65.41;98068.19;4469806;32;20109;-85
2023/04/19 00:52:14;;;;;;;21.12;10.18;;;;;;;17.05;63.95;98062.06;4470015;32;20086;-85
2023/04/19 00:54:41;;;;;;;21.50;10.82;;;;;;;16.74;65.15;98067.69;4470104;32;20061;-85
2023/04/19 00:57:08;;;;;;;20.00;10.40;;;;;;;16.65;65.52;98071.72;4470148;32;20066;-85
2023/04/19 00:59:41;;;;;;;20.35;10.32;;;;;;;16.59;65.43;98064.31;4470409;32;20065;-85
2023/04/19 01:02:09;;;;;;;22.17;11.10;;;;;;;16.99;64.11;98059.88;4470235;32;20053;-85
2023/04/19 01:04:36;;;;;;;20.40;10.35;;;;;;;16.41;65.88;98060.31;4470541;32;20080;-85
2023/04/19 01:07:03;;;;;;;22.23;10.77;;;;;;;16.35;66.23;98058.94;4470759;32;20105;-85
2023/04/19 01:09:33;;;;;;;19.98;10.10;;;;;;;17.06;63.74;98060.28;4470048;32;20058;-85
2023/04/19 01:12:03;;;;;;;20.25;10.20;;;;;;;17.43;60.37;98053.34;4469682;32;20084;-85
2023/04/19 01:14:30;;;;;;;22.52;10.70;;;;;;;17.23;60.75;98046.09;4470522;32;20080;-85
2023/04/19 01:16:57;;;;;;;22.52;10.50;;;;;;;16.61;62.86;98038.16;4469798;32;20069;-85
2023/04/19 01:19:24;;;;;;;21.27;10.05;;;;;;;16.55;63.93;98039.41;4469666;32;20064;-85
2023/04/19 01:21:51;;;;;;;22.20;10.52;;;;;;;16.29;65.42;98030.72;4470897;32;20061;-85
2023/04/19 01:24:18;;;;;;;23.50;10.48;;;;;;;16.31;65.59;98036.66;4470640;32;20057;-85
2023/04/19 01:26:45;;;;;;;22.95;10.32;;;;;;;16.34;65.22;98026.03;4470874;32;20110;-85
2023/04/19 01:29:12;;;;;;;23.25;10.90;;;;;;;15.76;67.41;98027.25;4470239;32;20110;-84
2023/04/19 01:31:39;;;;;;;25.50;11.35;;;;;;;15.66;69.24;98028.75;4470423;32;20053;-85
2023/04/19 01:34:06;;;;;;;22.37;10.45;;;;;;;15.68;68.22;98021.69;4470037;32;20089;-85
2023/04/19 01:36:33;;;;;;;22.40;11.20;;;;;;;15.43;69.39;98013.75;4470458;32;20071;-84
2023/04/19 01:39:28;;;;;;;21.67;10.95;;;;;;;16.00;67.25;98021.38;4470504;32;20111;-85
2023/04/19 01:41:55;;;;;;;23.87;11.77;;;;;;;15.99;67.33;98017.13;4470669;32;20053;-85
2023/04/19 01:44:22;;;;;;;21.00;10.48;;;;;;;15.50;69.95;98012.41;4470476;32;20080;-84
2023/04/19 01:46:49;;;;;;;22.00;10.13;;;;;;;15.98;67.88;98015.44;4470919;32;20077;-85
2023/04/19 01:49:16;;;;;;;23.17;11.10;;;;;;;15.82;68.57;98007.78;4470816;32;20073;-85
2023/04/19 01:51:43;;;;;;;23.77;10.60;;;;;;;15.86;68.53;98007.50;4470039;32;20072;-85
2023/04/19 01:54:10;;;;;;;21.73;11.23;;;;;;;15.88;67.89;98002.19;4470349;32;20057;-85
2023/04/19 01:56:37;;;;;;;23.05;10.82;;;;;;;15.81;68.43;98004.34;4470415;32;20058;-85
2023/04/19 01:59:14;;;;;;;21.37;10.48;;;;;;;15.93;67.94;98005.31;4470442;32;20065;-85
2023/04/19 02:01:41;;;;;;;20.98;10.70;;;;;;;15.97;67.42;98000.78;4470697;32;20073;-85
2023/04/19 02:04:08;;;;;;;26.27;10.50;;;;;;;16.00;67.70;97997.97;4470156;32;20091;-84
2023/04/19 02:06:35;;;;;;;20.92;10.13;;;;;;;16.05;67.39;97999.31;4470711;32;20061;-85
2023/04/19 02:09:11;;;;;;;26.02;11.15;;;;;;;16.16;66.63;98001.22;4470548;32;20058;-85
2023/04/19 02:11:38;;;;;;;19.30;9.70;;;;;;;16.76;63.65;97995.47;4470241;32;20057;-84
2023/04/19 02:14:05;;;;;;;20.33;9.55;;;;;;;16.47;64.53;97990.41;4470276;32;20049;-85
2023/04/19 02:16:31;;;;;;;23.15;10.57;;;;;;;15.95;66.78;97992.22;4469847;32;20061;-85
2023/04/19 02:19:02;;;;;;;23.20;10.40;;;;;;;15.53;68.41;97983.63;4469324;32;20065;-85
2023/04/19 02:21:30;;;;;;;22.13;10.80;;;;;;;15.29;69.57;97984.22;4469442;32;20097;-85
2023/04/19 02:23:57;;;;;;;22.00;10.85;;;;;;;15.59;68.11;97991.03;4469527;32;20109;-85
2023/04/19 02:26:24;;;;;;;22.52;9.93;;;;;;;16.22;65.83;97980.00;4469779;32;20065;-85
2023/04/19 02:28:52;;;;;;;20.90;10.65;;;;;;;16.17;66.06;97980.31;4470228;32;20126;-85
2023/04/19 02:31:19;;;;;;;22.42;10.63;;;;;;;16.22;65.46;97981.75;4470338;32;20106;-85
2023/04/19 02:33:46;;;;;;;21.25;9.68;;;;;;;16.39;64.42;97973.66;4470323;32;20084;-85
2023/04/19 02:36:13;;;;;;;21.35;10.27;;;;;;;16.31;64.50;97974.19;4470517;32;20093;-84
2023/04/19 02:38:42;;;;;;;19.45;9.55;;;;;;;16.27;64.67;97977.94;4470423;32;20087;-85
2023/04/19 02:41:09;;;;;;;19.60;9.63;;;;;;;16.16;65.21;97975.19;4470243;32;20061;-84
2023/04/19 02:43:36;;;;;;;20.12;9.73;;;;;;;16.06;65.36;97977.59;4470408;32;20080;-85
2023/04/19 02:46:03;;;;;;;22.33;10.20;;;;;;;15.99;65.79;97981.53;4471212;32;20049;-85
2023/04/19 02:48:36;;;;;;;20.67;9.65;;;;;;;15.70;66.85;97973.00;4471958;32;20114;-84
2023/04/19 02:51:02;;;;;;;20.92;9.20;;;;;;;15.83;66.29;97975.63;4472445;32;20105;-84
2023/04/19 02:53:29;;;;;;;20.05;10.23;;;;;;;15.04;69.25;97971.09;4471710;32;20058;-84
2023/04/19 02:55:56;;;;;;;29.15;9.98;;;;;;;14.90;70.52;97971.13;4472089;32;20066;-85
2023/04/19 02:58:23;;;;;;;19.70;10.35;;;;;;;15.67;66.99;97967.16;4471686;32;20061;-85
2023/04/19 03:00:50;;;;;;;19.73;10.02;;;;;;;15.95;65.08;97968.78;4471607;32;20062;-84
2023/04/19 03:03:17;;;;;;;20.73;9.52;;;;;;;15.36;67.61;97955.25;4471850;32;20101;-85
2023/04/19 03:05:44;;;;;;;21.85;9.98;;;;;;;15.29;67.87;97958.25;4471722;32;20105;-85
2023/04/19 03:08:26;;;;;;;19.35;9.98;;;;;;;15.51;66.79;97952.50;4471314;32;20097;-84
2023/04/19 03:10:52;;;;;;;19.75;9.38;;;;;;;15.61;66.23;97958.81;4471829;32;20058;-85
2023/04/19 03:13:19;;;;;;;18.90;9.52;;;;;;;15.22;67.71;97951.78;4471234;32;20057;-85
2023/04/19 03:15:47;;;;;;;24.83;10.35;;;;;;;15.34;67.01;97953.59;4470946;32;20070;-85
2023/04/19 03:18:15;;;;;;;22.67;10.18;;;;;;;15.11;68.08;97959.41;4471053;32;20073;-85
2023/04/19 03:20:42;;;;;;;21.23;10.43;;;;;;;14.89;68.43;97953.88;4471340;32;20121;-85
2023/04/19 03:23:09;;;;;;;20.75;10.40;;;;;;;15.50;65.95;97948.25;4471036;32;20057;-85
2023/04/19 03:25:36;;;;;;;19.75;9.07;;;;;;;15.36;66.37;97948.28;4471180;32;20101;-85
2023/04/19 03:28:03;;;;;;;20.48;9.55;;;;;;;15.28;66.16;97946.19;4471224;32;20107;-85
2023/04/19 03:30:30;;;;;;;21.02;9.52;;;;;;;15.21;66.20;97941.47;4470790;32;20046;-85
2023/04/19 03:32:58;;;;;;;22.37;9.80;;;;;;;15.29;65.86;97945.25;4471424;32;20105;-85
2023/04/19 03:35:28;;;;;;;20.35;9.18;;;;;;;14.79;68.20;97945.00;4471242;32;20068;-83
2023/04/19 03:37:55;;;;;;;20.85;9.88;;;;;;;15.22;65.74;97943.97;4471528;32;20057;-85
2023/04/19 03:40:21;;;;;;;20.58;9.25;;;;;;;14.99;67.01;97949.75;4471036;32;20061;-85
2023/04/19 03:42:48;;;;;;;21.75;8.90;;;;;;;14.58;68.52;97945.38;4470880;32;20101;-84
2023/04/19 03:45:15;;;;;;;23.15;9.77;;;;;;;14.88;68.10;97947.00;4471471;32;20068;-84
2023/04/19 03:47:42;;;;;;;19.62;9.38;;;;;;;14.98;68.36;97945.50;4471519;32;20076;-85
2023/04/19 03:50:09;;;;;;;20.95;9.82;;;;;;;14.72;69.30;97944.50;4471311;32;20089;-84
2023/04/19 03:52:36;;;;;;;19.62;9.57;;;;;;;14.36;71.40;97948.38;4471472;32;20075;-85
2023/04/19 03:55:03;;;;;;;23.12;9.80;;;;;;;14.00;73.79;97946.16;4471652;32;20107;-85
2023/04/19 03:57:31;;;;;;;22.27;10.18;;;;;;;14.44;71.85;97940.12;4471426;32;20169;-84
2023/04/19 04:03:09;;;;;;;20.27;9.45;;;;;;;15.20;67.89;97945.81;4471854;32;20057;-84
2023/04/19 04:05:37;;;;;;;21.10;9.57;;;;;;;15.40;66.82;97941.97;4471578;32;20073;-85
2023/04/19 04:08:12;;;;;;;20.20;9.32;;;;;;;15.28;67.50;97940.97;4471601;32;20065;-84
2023/04/19 04:10:39;;;;;;;21.40;9.63;;;;;;;15.34;67.37;97950.16;4471522;32;20096;-84
2023/04/19 04:13:06;;;;;;;21.85;9.77;;;;;;;14.57;71.02;97943.69;4471644;32;20065;-85
2023/04/19 04:15:33;;;;;;;19.98;9.02;;;;;;;15.48;67.00;97944.91;4471668;32;20066;-85
2023/04/19 04:18:00;;;;;;;19.20;9.25;;;;;;;15.22;67.31;97936.19;4471011;32;20073;-84
2023/04/19 04:20:27;;;;;;;21.85;9.98;;;;;;;15.26;66.61;97940.25;4471486;32;20076;-85
2023/04/19 04:22:54;;;;;;;20.20;9.30;;;;;;;15.15;67.84;97940.09;4471466;32;20065;-85
2023/04/19 04:25:21;;;;;;;20.40;10.27;;;;;;;15.20;67.87;97934.59;4471309;32;20065;-85
2023/04/19 04:28:05;;;;;;;19.73;9.02;;;;;;;14.84;69.38;97942.94;4471568;32;20114;-84
2023/04/19 04:30:33;;;;;;;20.90;9.23;;;;;;;15.10;68.75;97934.38;4471737;32;20072;-85
2023/04/19 04:33:00;;;;;;;21.30;10.35;;;;;;;15.27;68.20;97938.47;4471150;32;20077;-85
2023/04/19 04:35:27;;;;;;;23.12;9.88;;;;;;;15.18;68.83;97939.06;4471381;32;20109;-85
2023/04/19 04:37:56;;;;;;;21.00;10.60;;;;;;;14.94;69.87;97942.25;4471467;32;20062;-84
2023/04/19 04:40:23;;;;;;;21.17;9.95;;;;;;;15.75;67.21;97944.94;4471408;32;20057;-84
2023/04/19 04:42:51;;;;;;;19.70;10.02;;;;;;;15.75;67.27;97941.50;4471529;32;20122;-84
2023/04/19 04:45:18;;;;;;;22.60;9.77;;;;;;;15.58;68.04;97942.56;4471403;32;20070;-84
2023/04/19 04:48:08;;;;;;;23.23;10.30;;;;;;;16.39;65.05;97943.25;4471267;32;20106;-83
2023/04/19 04:50:35;;;;;;;20.65;10.23;;;;;;;16.18;65.63;97936.91;4471461;32;20072;-85
2023/04/19 04:53:02;;;;;;;23.85;10.68;;;;;;;16.02;66.00;97936.22;4470977;32;20061;-85
2023/04/19 04:55:28;;;;;;;20.50;9.73;;;;;;;16.11;66.41;97941.66;4471515;32;20108;-85
2023/04/19 04:58:00;;;;;;;18.83;9.75;;;;;;;17.11;61.65;97948.69;4471403;32;20073;-83
2023/04/19 05:00:27;;;;;;;20.42;10.10;;;;;;;16.86;62.27;97952.19;4471101;32;20065;-84
2023/04/19 05:02:54;;;;;;;20.65;9.95;;;;;;;16.74;64.19;97948.69;4471229;32;20083;-85
2023/04/19 05:05:21;;;;;;;20.55;10.15;;;;;;;17.64;60.98;97947.44;4471549;32;20069;-85
2023/04/19 05:08:25;;;;;;;19.98;10.00;;;;;;;18.13;59.44;97941.25;4470590;32;20057;-84
2023/04/19 05:10:52;;;;;;;19.15;9.68;;;;;;;18.34;58.81;97943.19;4471221;32;20112;-85
2023/04/19 05:13:19;;;;;;;18.60;9.55;;;;;;;19.23;55.96;97945.81;4470920;32;20053;-85
2023/04/19 05:15:46;;;;;;;15.93;8.23;;;;;;;20.42;51.05;97938.72;4470887;32;20057;-84
2023/04/19 05:18:13;;;;;;;18.55;8.88;;;;;;;21.40;47.48;97942.53;4470483;32;20086;-85
2023/04/19 05:20:40;;;;;;;17.48;8.27;;;;;;;22.06;44.12;97940.91;4470781;32;20062;-84
2023/04/19 05:23:07;;;;;;;16.05;8.00;;;;;;;22.95;41.62;97937.91;4470941;32;20076;-85
2023/04/19 05:25:34;;;;;;;15.52;6.97;;;;;;;22.24;41.19;97935.78;4471127;32;20073;-86
2023/04/19 05:28:08;;;;;;;13.15;7.10;;;;;;;20.64;43.46;97932.47;4470807;32;20053;-84
2023/04/19 05:30:35;;;;;;;15.57;6.82;;;;;;;20.03;45.56;97927.13;4470943;32;20087;-86
2023/04/19 05:33:03;;;;;;;16.73;7.00;;;;;;;20.78;44.37;97937.34;4470916;32;20065;-85
2023/04/19 05:35:30;;;;;;;13.05;6.57;;;;;;;20.56;43.91;97927.06;4470811;32;20092;-85
2023/04/19 05:37:59;;;;;;;12.52;6.47;;;;;;;19.57;46.75;97930.91;4471235;32;20115;-84
2023/04/19 05:40:27;;;;;;;14.15;6.87;;;;;;;19.35;48.04;97928.31;4471222;32;20099;-86
2023/04/19 05:42:54;;;;;;;13.52;7.15;;;;;;;19.64;47.24;97934.66;4470914;32;20077;-85
2023/04/19 05:45:21;;;;;;;14.93;6.90;;;;;;;18.23;51.14;97930.13;4471192;32;20057;-86
2023/04/19 05:48:00;;;;;;;14.30;6.55;;;;;;;18.95;49.60;97928.03;4471036;32;20092;-83
2023/04/19 05:50:27;;;;;;;13.60;6.93;;;;;;;18.91;49.40;97935.28;4462580;32;273220;-85
2023/04/19 05:52:54;;;;;;;15.32;7.10;;;;;;;19.65;48.97;97930.25;4470035;32;20181;-86
2023/04/19 05:55:21;;;;;;;12.65;6.65;;;;;;;18.84;50.46;97933.28;4468868;32;20066;-86
2023/04/19 05:57:49;;;;;;;16.02;6.87;;;;;;;18.32;51.13;97927.66;4470160;32;20119;-83
2023/04/19 06:00:16;;;;;;;13.90;7.15;;;;;;;18.62;51.85;97928.87;4466436;32;20062;-86
2023/04/19 06:02:43;;;;;;;16.95;7.20;;;;;;;18.77;51.41;97919.84;4466683;32;20096;-85
2023/04/19 06:05:10;;;;;;;15.88;7.47;;;;;;;17.54;53.52;97922.97;4467182;32;20072;-85
2023/04/19 06:07:38;;;;;;;16.90;7.50;;;;;;;18.85;50.46;97921.88;4467067;32;20057;-83
2023/04/19 06:10:16;;;;;;;15.70;7.20;;;;;;;18.48;52.31;97922.91;4462706;32;20064;-84
2023/04/19 06:12:43;;;;;;;15.75;7.57;;;;;;;18.85;49.30;97921.88;4457474;32;20120;-87
2023/04/19 06:15:10;;;;;;;14.95;8.32;;;;;;;18.69;51.03;97923.06;4458532;32;20107;-86
2023/04/19 06:17:37;;;;;;;19.95;9.95;;;;;;;18.74;51.14;97920.09;4456054;32;20186;-83
2023/04/19 06:20:06;;;;;;;16.10;8.13;;;;;;;18.49;52.45;97916.72;4455468;32;20142;-82
2023/04/19 06:22:34;;;;;;;19.25;8.95;;;;;;;18.92;51.84;97913.41;4457061;32;20427;-83
2023/04/19 06:25:01;;;;;;;18.02;9.60;;;;;;;19.42;49.50;97918.19;4455335;32;20105;-83
2023/04/19 06:27:28;;;;;;;15.80;7.85;;;;;;;19.45;49.65;97917.94;4455727;32;20592;-83
2023/04/19 06:29:55;;;;;;;14.70;7.28;;;;;;;19.11;51.05;97914.56;4455777;32;20093;-83
2023/04/19 06:32:22;;;;;;;17.85;8.10;;;;;;;18.58;52.17;97919.56;4455323;32;20072;-85
2023/04/19 06:34:49;;;;;;;18.73;9.57;;;;;;;17.46;56.35;97922.72;4455599;32;20368;-85
2023/04/19 06:37:16;;;;;;;19.42;10.20;;;;;;;17.37;59.02;97912.94;4455593;32;20105;-85
2023/04/19 06:39:42;;;;;;;17.33;9.65;;;;;;;16.46;61.96;97908.03;4454909;32;20163;-84
2023/04/19 06:42:11;;;;;;;19.25;10.00;;;;;;;15.81;65.46;97905.50;4455526;32;20627;-85
2023/04/19 06:44:38;;;;;;;19.33;9.85;;;;;;;16.09;66.91;97907.09;4455185;32;20089;-86
2023/04/19 06:47:05;;;;;;;20.92;10.60;;;;;;;16.58;63.56;97913.31;4455049;32;20342;-85
2023/04/19 06:49:32;;;;;;;19.98;10.77;;;;;;;16.41;65.56;97910.13;4455025;32;20097;-85
2023/04/19 06:51:58;;;;;;;18.23;10.00;;;;;;;16.90;64.32;97908.50;4455239;32;20104;-87
2023/04/19 06:54:25;;;;;;;20.48;10.43;;;;;;;16.93;64.97;97908.31;4455265;32;20098;-87
2023/04/19 06:56:52;;;;;;;21.50;10.32;;;;;;;16.86;64.73;97912.28;4455750;32;20463;-88
2023/04/19 06:59:19;;;;;;;18.73;9.60;;;;;;;18.07;61.02;97910.38;4454948;32;20090;-84
2023/04/19 07:01:47;;;;;;;15.63;8.48;;;;;;;18.35;58.38;97914.34;4455459;32;20556;-84
2023/04/19 07:04:15;;;;;;;17.12;9.27;;;;;;;17.39;59.69;97913.66;4455073;32;20097;-84
2023/04/19 07:06:42;;;;;;;17.90;9.65;;;;;;;16.91;60.26;97911.03;4455001;32;20081;-84
2023/04/19 07:09:09;;;;;;;20.60;10.40;;;;;;;17.36;60.91;97913.91;4454885;32;20485;-85
2023/04/19 07:11:36;;;;;;;17.33;10.00;;;;;;;17.20;61.15;97913.31;4454810;32;20444;-84
2023/04/19 07:14:03;;;;;;;17.23;10.27;;;;;;;17.27;60.97;97928.44;4454462;32;20101;-84
2023/04/19 07:16:30;;;;;;;17.52;10.15;;;;;;;16.89;62.42;97928.53;4454940;32;20097;-85
2023/04/19 07:18:57;;;;;;;20.40;10.00;;;;;;;17.27;61.16;97917.16;4454652;32;20145;-85
2023/04/19 07:21:27;;;;;;;19.23;10.27;;;;;;;17.27;58.75;97915.38;4454769;32;20134;-84
2023/04/19 07:23:54;;;;;;;19.40;10.40;;;;;;;17.55;61.25;97922.06;4454948;32;20124;-85
2023/04/19 07:26:21;;;;;;;22.17;11.68;;;;;;;17.32;62.03;97913.25;4454849;32;20097;-84
2023/04/19 07:28:48;;;;;;;20.45;10.52;;;;;;;17.86;59.78;97914.59;4454420;32;20086;-84
2023/04/19 07:31:16;;;;;;;21.23;11.02;;;;;;;18.27;57.01;97910.66;4455089;32;20081;-84
2023/04/19 07:33:43;;;;;;;19.75;11.02;;;;;;;18.62;55.70;97914.00;4457080;32;20116;-84
2023/04/19 07:36:10;;;;;;;20.70;10.75;;;;;;;18.47;56.35;97918.63;4456843;32;20093;-84
2023/04/19 07:38:37;;;;;;;19.55;10.27;;;;;;;18.13;58.24;97916.91;4456664;32;20085;-83
2023/04/19 07:41:05;;;;;;;21.60;11.35;;;;;;;18.62;55.95;97921.84;4456513;32;20077;-84
2023/04/19 07:43:32;;;;;;;21.02;12.18;;;;;;;18.14;55.97;97915.97;4456690;32;20167;-84
2023/04/19 07:45:59;;;;;;;23.10;11.27;;;;;;;18.14;59.93;97923.81;4457007;32;20085;-83
2023/04/19 07:48:26;;;;;;;21.27;10.75;;;;;;;18.44;57.14;97910.19;4456262;32;20093;-84
2023/04/19 07:50:53;;;;;;;19.92;11.35;;;;;;;19.35;53.67;97920.44;4456864;32;20077;-84
2023/04/19 07:53:19;;;;;;;23.58;11.82;;;;;;;19.34;53.77;97911.78;4456692;32;20101;-84
2023/04/19 07:55:46;;;;;;;19.12;11.27;;;;;;;18.81;55.99;97916.03;4456264;32;20097;-84
2023/04/19 07:58:13;;;;;;;22.62;11.95;;;;;;;19.05;54.52;97913.28;4456780;32;20093;-84
2023/04/19 08:00:40;;;;;;;19.87;10.85;;;;;;;19.56;53.18;97910.06;4456792;32;20093;-84
2023/04/19 08:03:07;;;;;;;20.67;11.57;;;;;;;19.78;52.96;97917.00;4456224;32;20112;-85
2023/04/19 08:05:35;;;;;;;20.30;10.90;;;;;;;19.66;52.83;97918.84;4456550;32;20156;-85
2023/04/19 08:08:01;;;;;;;19.00;10.18;;;;;;;19.69;52.69;97921.22;4456531;32;20094;-84
2023/04/19 08:10:29;;;;;;;20.42;11.02;;;;;;;19.13;53.47;97907.44;4456431;32;20100;-85
2023/04/19 08:12:56;;;;;;;18.75;10.57;;;;;;;19.44;52.69;97909.25;4456574;32;20158;-86
2023/04/19 08:15:33;;;;;;;17.52;10.05;;;;;;;18.69;55.24;97912.59;4456725;32;20545;-85
2023/04/19 08:18:06;;;;;;;16.17;9.80;;;;;;;18.91;55.56;97906.53;4456073;32;20126;-84
2023/04/19 08:20:33;;;;;;;17.45;8.98;;;;;;;19.21;53.52;97912.91;4456475;32;20187;-85
2023/04/19 08:23:00;;;;;;;22.98;10.32;;;;;;;18.42;55.78;97901.66;4456246;32;20435;-86
2023/04/19 08:25:44;;;;;;;16.08;9.55;;;;;;;19.20;53.69;97901.59;4456697;32;20115;-86
2023/04/19 08:28:11;;;;;;;16.33;9.27;;;;;;;19.12;52.81;97904.00;4457332;32;20097;-86
2023/04/19 08:30:39;;;;;;;20.45;9.60;;;;;;;18.92;54.77;97905.56;4456381;32;20139;-87
2023/04/19 08:33:06;;;;;;;19.70;10.73;;;;;;;19.45;52.78;97900.44;4456825;32;20093;-86
2023/04/19 08:35:35;;;;;;;22.73;9.90;;;;;;;19.74;51.74;97912.97;4457005;32;20081;-86
2023/04/19 08:38:03;;;;;;;17.60;10.27;;;;;;;19.07;52.81;97903.53;4456856;32;20365;-85
2023/04/19 08:40:30;;;;;;;18.33;10.75;;;;;;;19.04;54.00;97904.63;4456072;32;20476;-84
2023/04/19 08:42:57;;;;;;;22.05;11.23;;;;;;;18.82;55.15;97911.63;4455180;32;20167;-86
2023/04/19 08:45:28;;;;;;;21.80;12.77;;;;;;;19.03;54.13;97910.81;4455828;32;20154;-85
2023/04/19 08:47:56;;;;;;;21.48;12.63;;;;;;;19.04;54.79;97911.63;4456316;32;20160;-85
2023/04/19 08:50:28;;;;;;;24.92;13.07;;;;;;;18.82;56.44;97914.25;4456099;32;20077;-84
2023/04/19 08:53:00;;;;;;;25.33;13.00;;;;;;;18.01;58.78;97913.47;4455754;32;20121;-84
2023/04/19 08:55:48;;;;;;;22.40;13.10;;;;;;;17.52;60.62;97921.44;4456481;32;20459;-84
2023/04/19 08:58:18;;;;;;;22.45;12.80;;;;;;;17.29;61.33;97916.09;4455832;32;20089;-84
2023/04/19 09:01:07;;;;;;;24.95;13.05;;;;;;;16.79;62.96;97917.06;4459985;32;20146;-85
2023/04/19 09:03:46;;;;;;;25.65;13.90;;;;;;;17.49;61.67;97914.66;4459378;32;20101;-84
2023/04/19 09:06:39;;;;;;;25.25;13.30;;;;;;;17.48;60.27;97912.19;4456918;32;20158;-84
2023/04/19 09:09:18;;;;;;;23.00;11.93;;;;;;;17.30;60.77;97903.91;4458037;32;20515;-83
2023/04/19 09:11:48;;;;;;;23.35;12.35;;;;;;;17.49;64.99;97906.00;4460584;32;20439;-83
2023/04/19 09:14:17;;;;;;;20.90;12.00;;;;;;;18.53;59.32;97896.44;4457675;32;20085;-84
2023/04/19 09:16:45;;;;;;;21.27;12.45;;;;;;;18.16;59.53;97901.00;4460649;32;20065;-85
2023/04/19 09:19:12;;;;;;;22.62;12.02;;;;;;;19.27;57.46;97900.16;4461791;32;20111;-83
2023/04/19 09:21:51;;;;;;;20.92;11.80;;;;;;;19.80;54.43;97899.41;4465556;32;20045;-84
2023/04/19 09:24:18;;;;;;;19.35;10.88;;;;;;;19.02;54.37;97896.03;4462999;32;20057;-84
2023/04/19 09:26:56;;;;;;;20.15;11.38;;;;;;;18.45;55.34;97902.25;4461743;32;20102;-83
2023/04/19 09:29:24;;;;;;;19.77;11.27;;;;;;;18.59;56.90;97903.78;4457346;32;20106;-82
2023/04/19 09:31:58;;;;;;;19.05;10.88;;;;;;;18.97;58.10;97900.00;4459710;32;20148;-84
2023/04/19 09:34:27;;;;;;;21.50;10.98;;;;;;;19.73;51.54;97904.31;4457289;32;20093;-84
2023/04/19 09:36:54;;;;;;;19.62;10.68;;;;;;;20.71;50.69;97903.94;4456833;32;20436;-84
2023/04/19 09:39:38;;;;;;;19.87;11.00;;;;;;;20.84;50.28;97901.06;4456392;32;20107;-84
2023/04/19 09:42:06;;;;;;;20.48;11.48;;;;;;;20.52;48.51;97907.28;4456431;32;20077;-84
2023/04/19 09:44:34;;;;;;;22.83;11.88;;;;;;;20.87;50.21;97913.94;4459123;32;20109;-83
2023/04/19 09:47:25;;;;;;;21.45;12.13;;;;;;;20.11;48.80;97903.75;4456943;32;20109;-86
2023/04/19 09:50:06;;;;;;;21.37;11.30;;;;;;;19.07;51.49;97906.16;4456724;32;20085;-88
2023/04/19 09:52:48;;;;;;;20.37;11.77;;;;;;;18.96;53.49;97904.41;4455001;32;20099;-86
2023/04/19 09:55:16;;;;;;;20.80;11.98;;;;;;;18.75;54.49;97914.75;4453980;32;20109;-85
2023/04/19 09:57:54;;;;;;;25.00;12.25;;;;;;;18.87;54.45;97907.72;4456168;32;20107;-88
2023/04/19 10:00:21;;;;;;;19.58;11.52;;;;;;;18.92;52.79;97900.34;4455992;32;20109;-87
2023/04/19 10:02:56;;;;;;;20.00;12.02;;;;;;;17.92;55.88;97899.31;4455551;32;20115;-86
2023/04/19 10:05:24;;;;;;;22.52;13.07;;;;;;;18.20;55.57;97899.84;4456030;32;20161;-87
2023/04/19 10:07:54;;;;;;;20.17;12.05;;;;;;;18.12;55.05;97895.19;4454761;32;20101;-86
2023/04/19 10:10:27;;;;;;;22.80;11.98;;;;;;;18.14;54.97;97893.31;4455125;32;20152;-84
2023/04/19 10:13:12;;;;;;;20.90;11.43;;;;;;;18.07;53.54;97896.47;4455756;32;20080;-85
2023/04/19 10:15:45;;;;;;;23.08;12.13;;;;;;;17.41;55.45;97893.50;4454399;32;20120;-86
2023/04/19 10:18:21;;;;;;;24.05;12.35;;;;;;;17.15;59.98;97899.78;4454479;32;20523;-86
2023/04/19 10:21:00;;;;;;;22.27;12.27;;;;;;;17.25;59.27;97895.59;4455414;32;20099;-85
2023/04/19 10:23:28;;;;;;;21.77;12.52;;;;;;;17.83;57.11;97892.16;4455475;32;20104;-81
2023/04/19 10:25:59;;;;;;;21.77;12.63;;;;;;;17.92;57.91;97882.81;4456245;32;20135;-81
2023/04/19 10:28:29;;;;;;;22.80;12.90;;;;;;;17.69;58.07;97878.47;4455768;32;20162;-82
2023/04/19 10:31:03;;;;;;;24.10;13.20;;;;;;;17.18;59.93;97883.94;4469168;32;20065;-84
2023/04/19 10:33:34;;;;;;;22.52;12.95;;;;;;;17.44;59.21;97876.81;4468066;32;20113;-83
2023/04/19 10:36:02;;;;;;;24.10;13.52;;;;;;;17.55;60.84;97874.28;4467768;32;20069;-83
2023/04/19 10:38:38;;;;;;;22.35;12.50;;;;;;;17.96;60.09;97873.81;4466961;32;20097;-83
2023/04/19 10:41:10;;;;;;;22.02;11.88;;;;;;;17.63;60.86;97867.50;4468300;32;20057;-84
2023/04/19 10:43:46;;;;;;;24.67;12.40;;;;;;;17.88;59.55;97869.19;4468844;32;20083;-83
2023/04/19 10:46:20;;;;;;;22.65;12.98;;;;;;;18.25;56.86;97862.94;4468699;32;20110;-83
2023/04/19 10:49:13;;;;;;;24.55;13.80;;;;;;;18.37;58.28;97869.81;4468846;32;20080;-83
2023/04/19 10:54:35;;;;;;;23.83;13.57;;;;;;;18.62;60.74;97861.75;4497193;32;19989;-83
2023/04/19 10:57:04;;;;;;;24.95;12.90;;;;;;;18.32;58.17;97851.06;4500777;32;20060;-83
2023/04/19 10:59:36;;;;;;;25.40;12.43;;;;;;;18.91;57.58;97863.88;4498239;32;20071;-83
2023/04/19 11:02:05;;;;;;;23.20;12.90;;;;;;;19.62;56.68;97857.25;4499327;32;20098;-83
2023/04/19 11:04:35;;;;;;;23.10;12.70;;;;;;;19.86;52.32;97851.75;4482882;32;20182;-83
2023/04/19 11:07:23;;;;;;;23.20;12.73;;;;;;;19.80;52.85;97852.28;4553841;26;20103;-85
2023/04/19 11:09:51;;;;;;;25.17;12.77;;;;;;;19.27;55.13;97860.09;4538526;26;20056;-84
2023/04/19 11:12:19;;;;;;;21.95;12.13;;;;;;;18.70;54.82;97841.09;4468508;32;20066;-84
2023/04/19 11:14:49;;;;;;;22.48;13.07;;;;;;;19.13;53.79;97848.12;4460536;32;20092;-83
2023/04/19 11:17:24;;;;;;;24.60;13.65;;;;;;;19.73;53.42;97840.66;4470263;32;20065;-84
2023/04/19 11:20:01;;;;;;;21.42;12.90;;;;;;;19.99;55.96;97847.16;4469851;32;20073;-84
2023/04/19 11:22:41;;;;;;;20.52;12.52;;;;;;;20.68;52.02;97846.53;4462022;32;20085;-83
2023/04/19 11:25:13;;;;;;;21.42;12.57;;;;;;;20.68;50.13;97836.87;4460929;32;20073;-83
2023/04/19 11:27:41;;;;;;;21.77;12.43;;;;;;;21.06;50.33;97846.63;4458617;32;20072;-84
2023/04/19 11:30:11;;;;;;;22.58;13.73;;;;;;;21.52;49.72;97839.06;4456960;32;20461;-83
2023/04/19 11:32:47;;;;;;;21.62;11.90;;;;;;;20.81;50.18;97839.25;4442833;32;20149;-84
2023/04/19 11:35:17;;;;;;;19.58;11.63;;;;;;;20.10;50.57;97839.22;4457146;32;20425;-83
2023/04/19 11:37:43;;;;;;;21.85;11.75;;;;;;;19.68;51.88;97841.03;4443091;32;20170;-83